sensor_id;sensor_type;location;lat;lon;timestamp;P1;durP1;ratioP1;P2;durP2;ratioP2
16906;SDS011;8570;52.380;4.654;2023-04-07T00:02:12;14.37;;;3.87;;
16906;SDS011;8570;52.380;4.654;2023-04-07T00:07:15;16.93;;;4.27;;
16906;SDS011;8570;52.380;4.654;2023-04-07T00:12:17;10.67;;;3.53;;
16906;SDS011;8570;52.380;4.654;2023-04-07T00:17:19;12.63;;;3.97;;
16906;SDS011;8570;52.380;4.654;2023-04-07T00:22:22;14.33;;;3.57;;
16906;SDS011;8570;52.380;4.654;2023-04-07T00:27:24;19.60;;;4.30;;
16906;SDS011;8570;52.380;4.654;2023-04-07T00:32:26;17.97;;;4.17;;
16906;SDS011;8570;52.380;4.654;2023-04-07T00:37:30;15.70;;;3.40;;
16906;SDS011;8570;52.380;4.654;2023-04-07T00:42:32;15.63;;;3.23;;
16906;SDS011;8570;52.380;4.654;2023-04-07T00:47:34;14.10;;;2.87;;
16906;SDS011;8570;52.380;4.654;2023-04-07T00:52:37;19.23;;;3.00;;
16906;SDS011;8570;52.380;4.654;2023-04-07T00:57:40;15.67;;;3.30;;
16906;SDS011;8570;52.380;4.654;2023-04-07T01:02:43;24.97;;;3.80;;
16906;SDS011;8570;52.380;4.654;2023-04-07T01:07:56;21.10;;;3.80;;
16906;SDS011;8570;52.380;4.654;2023-04-07T01:13:04;27.30;;;4.23;;
16906;SDS011;8570;52.380;4.654;2023-04-07T01:18:12;20.40;;;4.27;;
16906;SDS011;8570;52.380;4.654;2023-04-07T01:23:20;16.30;;;3.80;;
16906;SDS011;8570;52.380;4.654;2023-04-07T01:28:43;17.70;;;4.00;;
16906;SDS011;8570;52.380;4.654;2023-04-07T01:34:06;17.20;;;4.27;;
16906;SDS011;8570;52.380;4.654;2023-04-07T01:39:10;18.70;;;3.73;;
16906;SDS011;8570;52.380;4.654;2023-04-07T01:44:13;15.77;;;4.13;;
16906;SDS011;8570;52.380;4.654;2023-04-07T01:49:17;16.57;;;3.97;;
16906;SDS011;8570;52.380;4.654;2023-04-07T01:54:20;18.27;;;3.83;;
16906;SDS011;8570;52.380;4.654;2023-04-07T01:59:23;22.50;;;3.80;;
16906;SDS011;8570;52.380;4.654;2023-04-07T02:04:28;15.40;;;3.37;;
16906;SDS011;8570;52.380;4.654;2023-04-07T02:09:34;15.10;;;3.57;;
16906;SDS011;8570;52.380;4.654;2023-04-07T02:14:39;19.73;;;3.47;;
16906;SDS011;8570;52.380;4.654;2023-04-07T02:19:42;16.57;;;3.73;;
16906;SDS011;8570;52.380;4.654;2023-04-07T02:24:46;13.87;;;3.60;;
16906;SDS011;8570;52.380;4.654;2023-04-07T02:29:48;18.30;;;3.30;;
16906;SDS011;8570;52.380;4.654;2023-04-07T02:34:51;12.50;;;3.70;;
16906;SDS011;8570;52.380;4.654;2023-04-07T02:39:53;16.83;;;3.57;;
16906;SDS011;8570;52.380;4.654;2023-04-07T02:44:55;7.70;;;2.70;;
16906;SDS011;8570;52.380;4.654;2023-04-07T02:49:58;12.83;;;3.17;;
16906;SDS011;8570;52.380;4.654;2023-04-07T02:55:00;10.53;;;2.60;;
16906;SDS011;8570;52.380;4.654;2023-04-07T03:00:03;12.87;;;2.87;;
16906;SDS011;8570;52.380;4.654;2023-04-07T03:05:07;10.67;;;3.03;;
16906;SDS011;8570;52.380;4.654;2023-04-07T03:10:09;14.53;;;3.23;;
16906;SDS011;8570;52.380;4.654;2023-04-07T03:15:11;13.00;;;2.93;;
16906;SDS011;8570;52.380;4.654;2023-04-07T03:20:15;15.47;;;2.90;;
16906;SDS011;8570;52.380;4.654;2023-04-07T03:25:17;17.07;;;3.33;;
16906;SDS011;8570;52.380;4.654;2023-04-07T03:30:19;12.93;;;2.60;;
16906;SDS011;8570;52.380;4.654;2023-04-07T03:35:25;8.00;;;2.17;;
16906;SDS011;8570;52.380;4.654;2023-04-07T03:40:27;8.83;;;2.30;;
16906;SDS011;8570;52.380;4.654;2023-04-07T03:45:29;13.10;;;2.30;;
16906;SDS011;8570;52.380;4.654;2023-04-07T03:50:32;10.43;;;2.80;;
16906;SDS011;8570;52.380;4.654;2023-04-07T03:55:34;10.37;;;2.40;;
16906;SDS011;8570;52.380;4.654;2023-04-07T04:00:38;14.63;;;3.50;;
16906;SDS011;8570;52.380;4.654;2023-04-07T04:05:41;25.10;;;4.33;;
16906;SDS011;8570;52.380;4.654;2023-04-07T04:10:43;18.27;;;3.40;;
16906;SDS011;8570;52.380;4.654;2023-04-07T04:15:45;13.93;;;3.10;;
16906;SDS011;8570;52.380;4.654;2023-04-07T04:20:48;12.47;;;2.97;;
16906;SDS011;8570;52.380;4.654;2023-04-07T04:25:50;8.73;;;2.33;;
16906;SDS011;8570;52.380;4.654;2023-04-07T04:30:52;11.27;;;2.77;;
16906;SDS011;8570;52.380;4.654;2023-04-07T04:35:55;17.67;;;5.80;;
16906;SDS011;8570;52.380;4.654;2023-04-07T04:40:57;17.30;;;5.00;;
16906;SDS011;8570;52.380;4.654;2023-04-07T04:46:01;13.23;;;3.67;;
16906;SDS011;8570;52.380;4.654;2023-04-07T04:51:04;9.63;;;2.70;;
16906;SDS011;8570;52.380;4.654;2023-04-07T04:56:07;9.50;;;2.40;;
16906;SDS011;8570;52.380;4.654;2023-04-07T05:01:09;10.03;;;2.70;;
16906;SDS011;8570;52.380;4.654;2023-04-07T05:06:12;10.10;;;2.80;;
16906;SDS011;8570;52.380;4.654;2023-04-07T05:11:15;13.60;;;3.43;;
16906;SDS011;8570;52.380;4.654;2023-04-07T05:16:17;15.07;;;2.77;;
16906;SDS011;8570;52.380;4.654;2023-04-07T05:21:20;15.57;;;2.50;;
16906;SDS011;8570;52.380;4.654;2023-04-07T05:26:22;12.80;;;2.40;;
16906;SDS011;8570;52.380;4.654;2023-04-07T05:31:24;14.50;;;3.17;;
16906;SDS011;8570;52.380;4.654;2023-04-07T05:36:27;13.83;;;2.67;;
16906;SDS011;8570;52.380;4.654;2023-04-07T05:41:30;14.03;;;2.90;;
16906;SDS011;8570;52.380;4.654;2023-04-07T05:46:32;18.70;;;2.60;;
16906;SDS011;8570;52.380;4.654;2023-04-07T05:51:35;8.27;;;2.20;;
16906;SDS011;8570;52.380;4.654;2023-04-07T05:56:37;13.87;;;3.23;;
16906;SDS011;8570;52.380;4.654;2023-04-07T06:01:39;12.60;;;2.30;;
16906;SDS011;8570;52.380;4.654;2023-04-07T06:06:43;18.17;;;2.70;;
16906;SDS011;8570;52.380;4.654;2023-04-07T06:11:45;16.27;;;3.30;;
16906;SDS011;8570;52.380;4.654;2023-04-07T06:16:47;9.90;;;2.50;;
16906;SDS011;8570;52.380;4.654;2023-04-07T06:21:50;16.00;;;2.40;;
16906;SDS011;8570;52.380;4.654;2023-04-07T06:26:52;11.23;;;2.10;;
16906;SDS011;8570;52.380;4.654;2023-04-07T06:31:56;13.47;;;2.33;;
16906;SDS011;8570;52.380;4.654;2023-04-07T06:36:59;7.20;;;1.70;;
16906;SDS011;8570;52.380;4.654;2023-04-07T06:42:02;8.17;;;1.80;;
16906;SDS011;8570;52.380;4.654;2023-04-07T06:47:04;7.70;;;2.10;;
16906;SDS011;8570;52.380;4.654;2023-04-07T06:52:07;11.83;;;2.50;;
16906;SDS011;8570;52.380;4.654;2023-04-07T06:57:09;11.33;;;2.00;;
16906;SDS011;8570;52.380;4.654;2023-04-07T07:02:11;8.20;;;2.10;;
16906;SDS011;8570;52.380;4.654;2023-04-07T07:07:16;12.10;;;2.10;;
16906;SDS011;8570;52.380;4.654;2023-04-07T07:12:18;8.30;;;2.03;;
16906;SDS011;8570;52.380;4.654;2023-04-07T07:17:20;9.10;;;2.20;;
16906;SDS011;8570;52.380;4.654;2023-04-07T07:22:23;10.93;;;2.20;;
16906;SDS011;8570;52.380;4.654;2023-04-07T07:27:25;12.73;;;3.03;;
16906;SDS011;8570;52.380;4.654;2023-04-07T07:32:27;16.10;;;2.80;;
16906;SDS011;8570;52.380;4.654;2023-04-07T07:37:31;10.90;;;2.80;;
16906;SDS011;8570;52.380;4.654;2023-04-07T07:42:32;12.80;;;2.80;;
16906;SDS011;8570;52.380;4.654;2023-04-07T07:47:34;11.87;;;3.10;;
16906;SDS011;8570;52.380;4.654;2023-04-07T07:52:38;17.23;;;3.47;;
16906;SDS011;8570;52.380;4.654;2023-04-07T07:57:40;15.40;;;2.63;;
16906;SDS011;8570;52.380;4.654;2023-04-07T08:02:43;13.17;;;2.70;;
16906;SDS011;8570;52.380;4.654;2023-04-07T08:07:46;12.75;;;2.92;;
16906;SDS011;8570;52.380;4.654;2023-04-07T08:12:48;14.43;;;2.70;;
16906;SDS011;8570;52.380;4.654;2023-04-07T08:17:50;11.90;;;2.53;;
16906;SDS011;8570;52.380;4.654;2023-04-07T08:22:53;13.10;;;3.13;;
16906;SDS011;8570;52.380;4.654;2023-04-07T08:27:55;11.30;;;2.73;;
16906;SDS011;8570;52.380;4.654;2023-04-07T08:32:57;10.73;;;2.47;;
16906;SDS011;8570;52.380;4.654;2023-04-07T08:38:00;21.37;;;3.57;;
16906;SDS011;8570;52.380;4.654;2023-04-07T08:43:03;11.87;;;2.83;;
16906;SDS011;8570;52.380;4.654;2023-04-07T08:48:10;14.67;;;2.53;;
16906;SDS011;8570;52.380;4.654;2023-04-07T08:53:18;11.30;;;2.53;;
16906;SDS011;8570;52.380;4.654;2023-04-07T08:58:27;17.13;;;2.90;;
16906;SDS011;8570;52.380;4.654;2023-04-07T09:03:31;16.20;;;2.90;;
16906;SDS011;8570;52.380;4.654;2023-04-07T09:08:35;15.00;;;2.87;;
16906;SDS011;8570;52.380;4.654;2023-04-07T09:13:37;23.67;;;2.97;;
16906;SDS011;8570;52.380;4.654;2023-04-07T09:18:39;12.03;;;2.50;;
16906;SDS011;8570;52.380;4.654;2023-04-07T09:23:43;18.43;;;3.43;;
16906;SDS011;8570;52.380;4.654;2023-04-07T09:28:46;17.83;;;3.20;;
16906;SDS011;8570;52.380;4.654;2023-04-07T09:33:49;16.70;;;3.00;;
16906;SDS011;8570;52.380;4.654;2023-04-07T09:38:53;15.27;;;2.50;;
16906;SDS011;8570;52.380;4.654;2023-04-07T09:43:55;13.00;;;3.00;;
16906;SDS011;8570;52.380;4.654;2023-04-07T09:49:00;13.33;;;2.70;;
16906;SDS011;8570;52.380;4.654;2023-04-07T09:54:06;16.53;;;2.73;;
16906;SDS011;8570;52.380;4.654;2023-04-07T09:59:08;15.25;;;2.55;;
16906;SDS011;8570;52.380;4.654;2023-04-07T10:04:11;11.40;;;2.28;;
16906;SDS011;8570;52.380;4.654;2023-04-07T10:09:14;13.00;;;2.33;;
16906;SDS011;8570;52.380;4.654;2023-04-07T10:14:17;11.75;;;2.60;;
16906;SDS011;8570;52.380;4.654;2023-04-07T10:19:20;14.77;;;3.83;;
16906;SDS011;8570;52.380;4.654;2023-04-07T10:24:28;15.57;;;3.90;;
16906;SDS011;8570;52.380;4.654;2023-04-07T10:29:43;20.97;;;3.83;;
16906;SDS011;8570;52.380;4.654;2023-04-07T10:34:55;18.02;;;3.78;;
16906;SDS011;8570;52.380;4.654;2023-04-07T10:51:10;16.75;;;3.50;;
16906;SDS011;8570;52.380;4.654;2023-04-07T10:56:16;17.10;;;3.60;;
16906;SDS011;8570;52.380;4.654;2023-04-07T11:01:18;19.60;;;4.47;;
16906;SDS011;8570;52.380;4.654;2023-04-07T11:06:21;15.00;;;3.13;;
16906;SDS011;8570;52.380;4.654;2023-04-07T11:11:37;23.50;;;5.00;;
16906;SDS011;8570;52.380;4.654;2023-04-07T11:16:41;17.67;;;3.20;;
16906;SDS011;8570;52.380;4.654;2023-04-07T11:21:44;17.45;;;3.38;;
16906;SDS011;8570;52.380;4.654;2023-04-07T11:26:48;16.15;;;3.53;;
16906;SDS011;8570;52.380;4.654;2023-04-07T11:31:50;24.38;;;4.32;;
16906;SDS011;8570;52.380;4.654;2023-04-07T11:36:52;15.82;;;3.30;;
16906;SDS011;8570;52.380;4.654;2023-04-07T11:41:59;15.95;;;3.40;;
16906;SDS011;8570;52.380;4.654;2023-04-07T11:47:01;21.50;;;5.18;;
16906;SDS011;8570;52.380;4.654;2023-04-07T11:52:04;15.25;;;3.92;;
16906;SDS011;8570;52.380;4.654;2023-04-07T11:57:11;21.63;;;4.18;;
16906;SDS011;8570;52.380;4.654;2023-04-07T12:07:35;12.83;;;2.80;;
16906;SDS011;8570;52.380;4.654;2023-04-07T12:12:44;11.55;;;2.67;;
16906;SDS011;8570;52.380;4.654;2023-04-07T12:17:46;18.80;;;3.92;;
16906;SDS011;8570;52.380;4.654;2023-04-07T12:22:49;15.07;;;4.25;;
16906;SDS011;8570;52.380;4.654;2023-04-07T12:27:53;18.05;;;3.50;;
16906;SDS011;8570;52.380;4.654;2023-04-07T12:32:55;19.17;;;4.40;;
16906;SDS011;8570;52.380;4.654;2023-04-07T12:37:57;18.43;;;5.23;;
16906;SDS011;8570;52.380;4.654;2023-04-07T12:43:00;12.47;;;3.53;;
16906;SDS011;8570;52.380;4.654;2023-04-07T12:48:02;15.50;;;3.93;;
16906;SDS011;8570;52.380;4.654;2023-04-07T12:53:04;13.10;;;4.23;;
16906;SDS011;8570;52.380;4.654;2023-04-07T12:58:09;18.33;;;4.17;;
16906;SDS011;8570;52.380;4.654;2023-04-07T13:03:12;20.30;;;3.80;;
16906;SDS011;8570;52.380;4.654;2023-04-07T13:08:14;14.90;;;3.63;;
16906;SDS011;8570;52.380;4.654;2023-04-07T13:13:17;11.75;;;3.28;;
16906;SDS011;8570;52.380;4.654;2023-04-07T13:18:19;8.07;;;2.53;;
16906;SDS011;8570;52.380;4.654;2023-04-07T13:23:22;11.10;;;2.87;;
16906;SDS011;8570;52.380;4.654;2023-04-07T13:28:25;10.90;;;3.13;;
16906;SDS011;8570;52.380;4.654;2023-04-07T13:33:27;13.73;;;3.50;;
16906;SDS011;8570;52.380;4.654;2023-04-07T13:38:29;7.83;;;2.67;;
16906;SDS011;8570;52.380;4.654;2023-04-07T13:43:33;8.90;;;2.10;;
16906;SDS011;8570;52.380;4.654;2023-04-07T13:48:35;15.30;;;3.27;;
16906;SDS011;8570;52.380;4.654;2023-04-07T13:53:37;11.90;;;2.83;;
16906;SDS011;8570;52.380;4.654;2023-04-07T13:58:40;16.13;;;3.37;;
16906;SDS011;8570;52.380;4.654;2023-04-07T14:03:47;14.00;;;3.27;;
16906;SDS011;8570;52.380;4.654;2023-04-07T14:08:49;11.30;;;3.15;;
16906;SDS011;8570;52.380;4.654;2023-04-07T14:13:53;14.67;;;3.10;;
16906;SDS011;8570;52.380;4.654;2023-04-07T14:18:56;12.47;;;3.17;;
16906;SDS011;8570;52.380;4.654;2023-04-07T14:23:58;15.60;;;3.05;;
16906;SDS011;8570;52.380;4.654;2023-04-07T14:29:02;11.83;;;3.40;;
16906;SDS011;8570;52.380;4.654;2023-04-07T14:34:04;7.53;;;2.33;;
16906;SDS011;8570;52.380;4.654;2023-04-07T14:39:06;12.40;;;3.13;;
16906;SDS011;8570;52.380;4.654;2023-04-07T14:44:10;7.60;;;2.45;;
16906;SDS011;8570;52.380;4.654;2023-04-07T14:49:12;6.70;;;2.13;;
16906;SDS011;8570;52.380;4.654;2023-04-07T14:54:14;8.37;;;2.20;;
16906;SDS011;8570;52.380;4.654;2023-04-07T14:59:20;12.57;;;3.67;;
16906;SDS011;8570;52.380;4.654;2023-04-07T15:04:22;11.23;;;3.00;;
16906;SDS011;8570;52.380;4.654;2023-04-07T15:09:24;8.03;;;3.03;;
16906;SDS011;8570;52.380;4.654;2023-04-07T15:14:28;9.75;;;3.65;;
16906;SDS011;8570;52.380;4.654;2023-04-07T15:19:30;10.60;;;3.78;;
16906;SDS011;8570;52.380;4.654;2023-04-07T15:24:32;14.23;;;4.03;;
16906;SDS011;8570;52.380;4.654;2023-04-07T15:29:35;9.75;;;3.30;;
16906;SDS011;8570;52.380;4.654;2023-04-07T15:34:37;9.80;;;4.03;;
16906;SDS011;8570;52.380;4.654;2023-04-07T15:39:39;13.02;;;5.13;;
16906;SDS011;8570;52.380;4.654;2023-04-07T15:44:43;7.50;;;5.57;;
16906;SDS011;8570;52.380;4.654;2023-04-07T15:49:45;11.60;;;6.20;;
16906;SDS011;8570;52.380;4.654;2023-04-07T15:54:46;11.68;;;6.47;;
16906;SDS011;8570;52.380;4.654;2023-04-07T15:59:53;9.32;;;5.85;;
16906;SDS011;8570;52.380;4.654;2023-04-07T16:04:54;11.18;;;7.43;;
16906;SDS011;8570;52.380;4.654;2023-04-07T16:09:57;12.65;;;6.80;;
16906;SDS011;8570;52.380;4.654;2023-04-07T16:15:00;11.82;;;6.45;;
16906;SDS011;8570;52.380;4.654;2023-04-07T16:20:03;13.23;;;8.13;;
16906;SDS011;8570;52.380;4.654;2023-04-07T16:25:09;13.20;;;7.88;;
16906;SDS011;8570;52.380;4.654;2023-04-07T16:30:13;16.80;;;9.63;;
16906;SDS011;8570;52.380;4.654;2023-04-07T16:35:17;14.52;;;8.57;;
16906;SDS011;8570;52.380;4.654;2023-04-07T16:40:19;20.20;;;10.55;;
16906;SDS011;8570;52.380;4.654;2023-04-07T16:45:22;17.00;;;10.70;;
16906;SDS011;8570;52.380;4.654;2023-04-07T16:50:24;16.53;;;11.43;;
16906;SDS011;8570;52.380;4.654;2023-04-07T16:55:26;16.85;;;10.38;;
16906;SDS011;8570;52.380;4.654;2023-04-07T17:00:30;19.88;;;12.18;;
16906;SDS011;8570;52.380;4.654;2023-04-07T17:05:32;17.87;;;12.70;;
16906;SDS011;8570;52.380;4.654;2023-04-07T17:10:34;18.33;;;11.60;;
16906;SDS011;8570;52.380;4.654;2023-04-07T17:15:37;17.55;;;11.68;;
16906;SDS011;8570;52.380;4.654;2023-04-07T17:20:42;22.42;;;13.40;;
16906;SDS011;8570;52.380;4.654;2023-04-07T17:25:44;22.50;;;13.20;;
16906;SDS011;8570;52.380;4.654;2023-04-07T17:30:49;19.02;;;12.98;;
16906;SDS011;8570;52.380;4.654;2023-04-07T17:35:51;20.70;;;13.90;;
16906;SDS011;8570;52.380;4.654;2023-04-07T17:40:55;17.17;;;12.23;;
16906;SDS011;8570;52.380;4.654;2023-04-07T17:45:59;21.63;;;13.87;;
16906;SDS011;8570;52.380;4.654;2023-04-07T17:51:03;21.27;;;13.47;;
16906;SDS011;8570;52.380;4.654;2023-04-07T17:56:05;20.25;;;12.95;;
16906;SDS011;8570;52.380;4.654;2023-04-07T18:01:08;18.93;;;12.17;;
16906;SDS011;8570;52.380;4.654;2023-04-07T18:06:13;19.13;;;12.43;;
16906;SDS011;8570;52.380;4.654;2023-04-07T18:11:15;21.77;;;13.83;;
16906;SDS011;8570;52.380;4.654;2023-04-07T18:16:19;21.73;;;14.20;;
16906;SDS011;8570;52.380;4.654;2023-04-07T18:21:22;22.93;;;15.53;;
16906;SDS011;8570;52.380;4.654;2023-04-07T18:26:24;26.73;;;16.67;;
16906;SDS011;8570;52.380;4.654;2023-04-07T18:31:27;23.33;;;15.90;;
16906;SDS011;8570;52.380;4.654;2023-04-07T18:36:29;24.23;;;16.33;;
16906;SDS011;8570;52.380;4.654;2023-04-07T18:41:31;24.77;;;16.30;;
16906;SDS011;8570;52.380;4.654;2023-04-07T18:46:34;28.05;;;17.23;;
16906;SDS011;8570;52.380;4.654;2023-04-07T18:51:37;26.60;;;16.77;;
16906;SDS011;8570;52.380;4.654;2023-04-07T18:56:39;33.55;;;16.83;;
16906;SDS011;8570;52.380;4.654;2023-04-07T19:01:42;26.63;;;16.02;;
16906;SDS011;8570;52.380;4.654;2023-04-07T19:06:46;26.48;;;16.95;;
16906;SDS011;8570;52.380;4.654;2023-04-07T19:11:50;29.00;;;16.85;;
16906;SDS011;8570;52.380;4.654;2023-04-07T19:16:53;28.25;;;16.23;;
16906;SDS011;8570;52.380;4.654;2023-04-07T19:21:55;26.83;;;17.60;;
16906;SDS011;8570;52.380;4.654;2023-04-07T19:26:57;25.73;;;16.63;;
16906;SDS011;8570;52.380;4.654;2023-04-07T19:32:06;25.60;;;16.52;;
16906;SDS011;8570;52.380;4.654;2023-04-07T19:37:08;27.13;;;16.33;;
16906;SDS011;8570;52.380;4.654;2023-04-07T19:42:10;25.90;;;16.67;;
16906;SDS011;8570;52.380;4.654;2023-04-07T19:47:14;30.88;;;19.02;;
16906;SDS011;8570;52.380;4.654;2023-04-07T19:52:16;28.33;;;17.93;;
16906;SDS011;8570;52.380;4.654;2023-04-07T19:57:17;29.63;;;18.00;;
16906;SDS011;8570;52.380;4.654;2023-04-07T20:02:21;28.23;;;19.07;;
16906;SDS011;8570;52.380;4.654;2023-04-07T20:07:23;33.00;;;19.83;;
16906;SDS011;8570;52.380;4.654;2023-04-07T20:12:25;30.80;;;19.63;;
16906;SDS011;8570;52.380;4.654;2023-04-07T20:17:28;28.57;;;18.77;;
16906;SDS011;8570;52.380;4.654;2023-04-07T20:22:32;26.23;;;16.37;;
16906;SDS011;8570;52.380;4.654;2023-04-07T20:27:35;25.83;;;16.50;;
16906;SDS011;8570;52.380;4.654;2023-04-07T20:32:39;25.50;;;16.87;;
16906;SDS011;8570;52.380;4.654;2023-04-07T20:37:42;28.93;;;17.93;;
16906;SDS011;8570;52.380;4.654;2023-04-07T20:42:44;29.60;;;19.50;;
16906;SDS011;8570;52.380;4.654;2023-04-07T20:47:47;28.63;;;18.67;;
16906;SDS011;8570;52.380;4.654;2023-04-07T20:52:50;28.63;;;18.27;;
16906;SDS011;8570;52.380;4.654;2023-04-07T20:57:52;28.73;;;18.73;;
16906;SDS011;8570;52.380;4.654;2023-04-07T21:02:56;24.67;;;16.50;;
16906;SDS011;8570;52.380;4.654;2023-04-07T21:07:58;27.37;;;16.90;;
16906;SDS011;8570;52.380;4.654;2023-04-07T21:13:00;30.67;;;16.40;;
16906;SDS011;8570;52.380;4.654;2023-04-07T21:18:03;25.33;;;16.13;;
16906;SDS011;8570;52.380;4.654;2023-04-07T21:23:05;28.50;;;16.73;;
16906;SDS011;8570;52.380;4.654;2023-04-07T21:28:09;24.67;;;16.60;;
16906;SDS011;8570;52.380;4.654;2023-04-07T21:33:12;20.73;;;14.87;;
16906;SDS011;8570;52.380;4.654;2023-04-07T21:38:14;20.63;;;15.10;;
16906;SDS011;8570;52.380;4.654;2023-04-07T21:43:16;26.07;;;17.63;;
16906;SDS011;8570;52.380;4.654;2023-04-07T21:48:19;21.57;;;15.50;;
16906;SDS011;8570;52.380;4.654;2023-04-07T21:53:22;23.63;;;14.60;;
16906;SDS011;8570;52.380;4.654;2023-04-07T21:58:24;19.67;;;14.83;;
16906;SDS011;8570;52.380;4.654;2023-04-07T22:03:27;22.63;;;15.73;;
16906;SDS011;8570;52.380;4.654;2023-04-07T22:08:29;21.37;;;15.47;;
16906;SDS011;8570;52.380;4.654;2023-04-07T22:13:31;23.80;;;15.83;;
16906;SDS011;8570;52.380;4.654;2023-04-07T22:18:36;22.97;;;16.40;;
16906;SDS011;8570;52.380;4.654;2023-04-07T22:23:38;29.87;;;18.57;;
16906;SDS011;8570;52.380;4.654;2023-04-07T22:28:40;23.17;;;15.10;;
16906;SDS011;8570;52.380;4.654;2023-04-07T22:33:43;29.43;;;19.03;;
16906;SDS011;8570;52.380;4.654;2023-04-07T22:38:46;27.50;;;18.20;;
16906;SDS011;8570;52.380;4.654;2023-04-07T22:43:47;25.33;;;17.50;;
16906;SDS011;8570;52.380;4.654;2023-04-07T22:48:51;28.63;;;18.80;;
16906;SDS011;8570;52.380;4.654;2023-04-07T22:53:53;27.53;;;18.50;;
16906;SDS011;8570;52.380;4.654;2023-04-07T22:58:55;25.07;;;17.53;;
16906;SDS011;8570;52.380;4.654;2023-04-07T23:04:05;27.37;;;17.60;;
16906;SDS011;8570;52.380;4.654;2023-04-07T23:09:07;28.37;;;18.77;;
16906;SDS011;8570;52.380;4.654;2023-04-07T23:14:09;28.23;;;18.90;;
16906;SDS011;8570;52.380;4.654;2023-04-07T23:19:12;32.50;;;19.73;;
16906;SDS011;8570;52.380;4.654;2023-04-07T23:24:15;28.60;;;18.93;;
16906;SDS011;8570;52.380;4.654;2023-04-07T23:29:20;28.23;;;18.97;;
16906;SDS011;8570;52.380;4.654;2023-04-07T23:34:23;31.97;;;19.57;;
16906;SDS011;8570;52.380;4.654;2023-04-07T23:39:25;33.43;;;20.13;;
16906;SDS011;8570;52.380;4.654;2023-04-07T23:44:27;31.93;;;19.83;;
16906;SDS011;8570;52.380;4.654;2023-04-07T23:49:30;33.33;;;20.53;;
16906;SDS011;8570;52.380;4.654;2023-04-07T23:54:32;31.47;;;20.00;;
16906;SDS011;8570;52.380;4.654;2023-04-07T23:59:36;30.53;;;19.70;;
